sensor_id;sensor_type;location;lat;lon;timestamp;temperature;humidity
22145;DHT22;11238;48.730;11.566;2023-06-22T00:00:49;19.40;99.90
22145;DHT22;11238;48.730;11.566;2023-06-22T00:03:19;19.30;99.90
22145;DHT22;11238;48.730;11.566;2023-06-22T00:05:46;19.30;99.90
22145;DHT22;11238;48.730;11.566;2023-06-22T00:08:13;19.30;99.90
22145;DHT22;11238;48.730;11.566;2023-06-22T00:10:38;19.30;99.90
22145;DHT22;11238;48.730;11.566;2023-06-22T00:13:06;19.10;99.90
22145;DHT22;11238;48.730;11.566;2023-06-22T00:15:32;19.10;99.90
22145;DHT22;11238;48.730;11.566;2023-06-22T00:17:58;19.10;99.90
22145;DHT22;11238;48.730;11.566;2023-06-22T00:20:28;19.10;99.90
22145;DHT22;11238;48.730;11.566;2023-06-22T00:22:55;19.00;99.90
22145;DHT22;11238;48.730;11.566;2023-06-22T00:25:22;19.00;99.90
22145;DHT22;11238;48.730;11.566;2023-06-22T00:27:49;19.10;99.90
22145;DHT22;11238;48.730;11.566;2023-06-22T00:30:18;19.10;99.90
22145;DHT22;11238;48.730;11.566;2023-06-22T00:32:45;19.10;99.90
22145;DHT22;11238;48.730;11.566;2023-06-22T00:35:13;19.00;99.90
22145;DHT22;11238;48.730;11.566;2023-06-22T00:37:39;19.10;99.90
22145;DHT22;11238;48.730;11.566;2023-06-22T00:40:12;19.10;99.90
22145;DHT22;11238;48.730;11.566;2023-06-22T00:42:38;19.10;99.90
22145;DHT22;11238;48.730;11.566;2023-06-22T00:45:05;19.10;99.90
22145;DHT22;11238;48.730;11.566;2023-06-22T00:47:56;19.10;99.90
22145;DHT22;11238;48.730;11.566;2023-06-22T00:50:23;19.10;99.90
22145;DHT22;11238;48.730;11.566;2023-06-22T00:52:57;19.00;99.90
22145;DHT22;11238;48.730;11.566;2023-06-22T00:55:25;19.00;99.90
22145;DHT22;11238;48.730;11.566;2023-06-22T00:57:52;19.00;99.90
22145;DHT22;11238;48.730;11.566;2023-06-22T01:00:23;19.00;99.90
22145;DHT22;11238;48.730;11.566;2023-06-22T01:02:50;18.90;99.90
22145;DHT22;11238;48.730;11.566;2023-06-22T01:05:20;18.90;99.90
22145;DHT22;11238;48.730;11.566;2023-06-22T01:11:05;18.80;99.90
22145;DHT22;11238;48.730;11.566;2023-06-22T01:16:50;18.80;99.90
22145;DHT22;11238;48.730;11.566;2023-06-22T01:19:04;18.70;99.90
22145;DHT22;11238;48.730;11.566;2023-06-22T01:21:32;18.70;99.90
22145;DHT22;11238;48.730;11.566;2023-06-22T01:26:43;18.70;99.90
22145;DHT22;11238;48.730;11.566;2023-06-22T01:29:15;18.70;99.90
22145;DHT22;11238;48.730;11.566;2023-06-22T01:31:42;18.70;99.90
22145;DHT22;11238;48.730;11.566;2023-06-22T01:34:12;18.70;99.90
22145;DHT22;11238;48.730;11.566;2023-06-22T01:36:39;18.60;99.90
22145;DHT22;11238;48.730;11.566;2023-06-22T01:39:06;18.50;99.90
22145;DHT22;11238;48.730;11.566;2023-06-22T01:41:36;18.50;99.90
22145;DHT22;11238;48.730;11.566;2023-06-22T01:44:05;18.50;99.90
22145;DHT22;11238;48.730;11.566;2023-06-22T01:46:34;18.60;99.90
22145;DHT22;11238;48.730;11.566;2023-06-22T01:49:02;18.50;99.90
22145;DHT22;11238;48.730;11.566;2023-06-22T01:51:28;18.50;99.90
22145;DHT22;11238;48.730;11.566;2023-06-22T01:53:55;18.40;99.90
22145;DHT22;11238;48.730;11.566;2023-06-22T01:56:20;18.40;99.90
22145;DHT22;11238;48.730;11.566;2023-06-22T01:58:58;18.40;99.90
22145;DHT22;11238;48.730;11.566;2023-06-22T02:01:29;18.40;99.90
22145;DHT22;11238;48.730;11.566;2023-06-22T02:04:05;18.40;99.90
22145;DHT22;11238;48.730;11.566;2023-06-22T02:06:39;18.40;99.90
22145;DHT22;11238;48.730;11.566;2023-06-22T02:09:12;18.40;99.90
22145;DHT22;11238;48.730;11.566;2023-06-22T02:11:41;18.40;99.90
22145;DHT22;11238;48.730;11.566;2023-06-22T02:14:08;18.30;99.90
22145;DHT22;11238;48.730;11.566;2023-06-22T02:16:35;18.30;99.90
22145;DHT22;11238;48.730;11.566;2023-06-22T02:19:02;18.30;99.90
22145;DHT22;11238;48.730;11.566;2023-06-22T02:21:30;18.30;99.90
22145;DHT22;11238;48.730;11.566;2023-06-22T02:23:57;18.30;99.90
22145;DHT22;11238;48.730;11.566;2023-06-22T02:26:24;18.30;99.90
22145;DHT22;11238;48.730;11.566;2023-06-22T02:28:53;18.30;99.90
22145;DHT22;11238;48.730;11.566;2023-06-22T02:31:19;18.20;99.90
22145;DHT22;11238;48.730;11.566;2023-06-22T02:33:46;18.20;99.90
22145;DHT22;11238;48.730;11.566;2023-06-22T02:36:12;18.20;99.90
22145;DHT22;11238;48.730;11.566;2023-06-22T02:38:41;18.20;99.90
22145;DHT22;11238;48.730;11.566;2023-06-22T02:41:15;18.20;99.90
22145;DHT22;11238;48.730;11.566;2023-06-22T02:43:45;18.20;99.90
22145;DHT22;11238;48.730;11.566;2023-06-22T02:46:12;18.10;99.90
22145;DHT22;11238;48.730;11.566;2023-06-22T02:48:40;18.10;99.90
22145;DHT22;11238;48.730;11.566;2023-06-22T02:51:07;18.10;99.90
22145;DHT22;11238;48.730;11.566;2023-06-22T02:53:34;18.10;99.90
22145;DHT22;11238;48.730;11.566;2023-06-22T02:56:02;18.10;99.90
22145;DHT22;11238;48.730;11.566;2023-06-22T02:58:34;18.10;99.90
22145;DHT22;11238;48.730;11.566;2023-06-22T03:01:07;18.10;99.90
22145;DHT22;11238;48.730;11.566;2023-06-22T03:03:35;18.10;99.90
22145;DHT22;11238;48.730;11.566;2023-06-22T03:06:01;18.10;99.90
22145;DHT22;11238;48.730;11.566;2023-06-22T03:08:28;18.10;99.90
22145;DHT22;11238;48.730;11.566;2023-06-22T03:10:54;18.10;99.90
22145;DHT22;11238;48.730;11.566;2023-06-22T03:13:20;18.10;99.90
22145;DHT22;11238;48.730;11.566;2023-06-22T03:15:46;18.10;99.90
22145;DHT22;11238;48.730;11.566;2023-06-22T03:18:12;18.10;99.90
22145;DHT22;11238;48.730;11.566;2023-06-22T03:20:38;18.10;99.90
22145;DHT22;11238;48.730;11.566;2023-06-22T03:23:04;18.00;99.90
22145;DHT22;11238;48.730;11.566;2023-06-22T03:25:31;18.00;99.90
22145;DHT22;11238;48.730;11.566;2023-06-22T03:27:57;18.00;99.90
22145;DHT22;11238;48.730;11.566;2023-06-22T03:30:24;18.00;99.90
22145;DHT22;11238;48.730;11.566;2023-06-22T03:32:50;18.00;99.90
22145;DHT22;11238;48.730;11.566;2023-06-22T03:35:16;18.00;99.90
22145;DHT22;11238;48.730;11.566;2023-06-22T03:37:42;18.00;99.90
22145;DHT22;11238;48.730;11.566;2023-06-22T03:40:08;18.00;99.90
22145;DHT22;11238;48.730;11.566;2023-06-22T03:42:35;18.00;99.90
22145;DHT22;11238;48.730;11.566;2023-06-22T03:45:04;18.10;99.90
22145;DHT22;11238;48.730;11.566;2023-06-22T03:47:32;18.00;99.90
22145;DHT22;11238;48.730;11.566;2023-06-22T03:49:58;18.00;99.90
22145;DHT22;11238;48.730;11.566;2023-06-22T03:52:24;18.10;99.90
22145;DHT22;11238;48.730;11.566;2023-06-22T03:54:51;18.10;99.90
22145;DHT22;11238;48.730;11.566;2023-06-22T03:57:16;18.10;99.90
22145;DHT22;11238;48.730;11.566;2023-06-22T03:59:42;18.10;99.90
22145;DHT22;11238;48.730;11.566;2023-06-22T04:02:11;18.10;99.90
22145;DHT22;11238;48.730;11.566;2023-06-22T04:04:36;18.10;99.90
22145;DHT22;11238;48.730;11.566;2023-06-22T04:07:05;18.20;99.90
22145;DHT22;11238;48.730;11.566;2023-06-22T04:09:31;18.20;99.90
22145;DHT22;11238;48.730;11.566;2023-06-22T04:11:57;18.20;99.90
22145;DHT22;11238;48.730;11.566;2023-06-22T04:14:23;18.20;99.90
22145;DHT22;11238;48.730;11.566;2023-06-22T04:16:49;18.30;99.90
22145;DHT22;11238;48.730;11.566;2023-06-22T04:19:15;18.30;99.90
22145;DHT22;11238;48.730;11.566;2023-06-22T04:21:43;18.20;99.90
22145;DHT22;11238;48.730;11.566;2023-06-22T04:24:14;18.30;99.90
22145;DHT22;11238;48.730;11.566;2023-06-22T04:26:40;18.30;99.90
22145;DHT22;11238;48.730;11.566;2023-06-22T04:29:08;18.30;99.90
22145;DHT22;11238;48.730;11.566;2023-06-22T04:31:36;18.40;99.90
22145;DHT22;11238;48.730;11.566;2023-06-22T04:34:03;18.40;99.90
22145;DHT22;11238;48.730;11.566;2023-06-22T04:36:38;18.40;99.90
22145;DHT22;11238;48.730;11.566;2023-06-22T04:39:09;18.50;99.90
22145;DHT22;11238;48.730;11.566;2023-06-22T04:41:37;18.50;99.90
22145;DHT22;11238;48.730;11.566;2023-06-22T04:44:19;18.50;99.90
22145;DHT22;11238;48.730;11.566;2023-06-22T04:46:53;18.60;99.90
22145;DHT22;11238;48.730;11.566;2023-06-22T04:49:35;18.60;99.90
22145;DHT22;11238;48.730;11.566;2023-06-22T04:52:07;18.70;99.90
22145;DHT22;11238;48.730;11.566;2023-06-22T04:54:35;18.80;99.90
22145;DHT22;11238;48.730;11.566;2023-06-22T04:57:02;18.90;99.90
22145;DHT22;11238;48.730;11.566;2023-06-22T04:59:30;19.00;99.90
22145;DHT22;11238;48.730;11.566;2023-06-22T05:01:57;19.10;99.90
22145;DHT22;11238;48.730;11.566;2023-06-22T05:04:25;19.20;99.90
22145;DHT22;11238;48.730;11.566;2023-06-22T05:06:54;19.20;99.90
22145;DHT22;11238;48.730;11.566;2023-06-22T05:09:21;19.30;99.90
22145;DHT22;11238;48.730;11.566;2023-06-22T05:11:47;19.30;99.90
22145;DHT22;11238;48.730;11.566;2023-06-22T05:14:13;19.30;99.90
22145;DHT22;11238;48.730;11.566;2023-06-22T05:16:41;19.40;99.90
22145;DHT22;11238;48.730;11.566;2023-06-22T05:19:07;19.50;99.90
22145;DHT22;11238;48.730;11.566;2023-06-22T05:21:34;19.50;99.90
22145;DHT22;11238;48.730;11.566;2023-06-22T05:24:00;19.60;99.90
22145;DHT22;11238;48.730;11.566;2023-06-22T05:26:30;19.70;99.90
22145;DHT22;11238;48.730;11.566;2023-06-22T05:28:56;19.80;99.90
22145;DHT22;11238;48.730;11.566;2023-06-22T05:31:23;19.90;99.90
22145;DHT22;11238;48.730;11.566;2023-06-22T05:33:51;20.10;99.90
22145;DHT22;11238;48.730;11.566;2023-06-22T05:36:17;20.10;99.90
22145;DHT22;11238;48.730;11.566;2023-06-22T05:38:45;20.10;99.90
22145;DHT22;11238;48.730;11.566;2023-06-22T05:41:20;20.10;99.90
22145;DHT22;11238;48.730;11.566;2023-06-22T05:43:46;20.20;99.90
22145;DHT22;11238;48.730;11.566;2023-06-22T05:46:12;20.20;99.90
22145;DHT22;11238;48.730;11.566;2023-06-22T05:48:40;20.30;99.90
22145;DHT22;11238;48.730;11.566;2023-06-22T05:51:05;20.40;99.90
22145;DHT22;11238;48.730;11.566;2023-06-22T05:53:31;20.40;99.90
22145;DHT22;11238;48.730;11.566;2023-06-22T05:55:58;20.50;99.90
22145;DHT22;11238;48.730;11.566;2023-06-22T05:58:24;20.60;99.90
22145;DHT22;11238;48.730;11.566;2023-06-22T06:00:50;20.60;99.90
22145;DHT22;11238;48.730;11.566;2023-06-22T06:03:17;20.70;99.90
22145;DHT22;11238;48.730;11.566;2023-06-22T06:05:44;20.70;99.90
22145;DHT22;11238;48.730;11.566;2023-06-22T06:08:10;20.80;99.90
22145;DHT22;11238;48.730;11.566;2023-06-22T06:10:37;20.80;99.90
22145;DHT22;11238;48.730;11.566;2023-06-22T06:13:03;20.90;99.90
22145;DHT22;11238;48.730;11.566;2023-06-22T06:15:34;20.90;99.90
22145;DHT22;11238;48.730;11.566;2023-06-22T06:18:00;21.00;99.90
22145;DHT22;11238;48.730;11.566;2023-06-22T06:20:27;21.10;99.90
22145;DHT22;11238;48.730;11.566;2023-06-22T06:22:58;21.20;99.90
22145;DHT22;11238;48.730;11.566;2023-06-22T06:25:24;21.30;99.90
22145;DHT22;11238;48.730;11.566;2023-06-22T06:27:51;21.30;99.90
22145;DHT22;11238;48.730;11.566;2023-06-22T06:30:19;21.40;99.90
22145;DHT22;11238;48.730;11.566;2023-06-22T06:32:47;21.50;99.90
22145;DHT22;11238;48.730;11.566;2023-06-22T06:35:14;21.60;99.90
22145;DHT22;11238;48.730;11.566;2023-06-22T06:37:46;21.60;99.90
22145;DHT22;11238;48.730;11.566;2023-06-22T06:40:13;21.80;99.90
22145;DHT22;11238;48.730;11.566;2023-06-22T06:42:43;21.80;99.90
22145;DHT22;11238;48.730;11.566;2023-06-22T06:45:18;21.90;99.90
22145;DHT22;11238;48.730;11.566;2023-06-22T06:47:46;22.00;99.90
22145;DHT22;11238;48.730;11.566;2023-06-22T06:50:15;22.10;99.90
22145;DHT22;11238;48.730;11.566;2023-06-22T06:52:41;22.20;99.90
22145;DHT22;11238;48.730;11.566;2023-06-22T06:55:08;22.30;99.90
22145;DHT22;11238;48.730;11.566;2023-06-22T06:57:38;22.40;99.90
22145;DHT22;11238;48.730;11.566;2023-06-22T07:00:06;22.50;99.90
22145;DHT22;11238;48.730;11.566;2023-06-22T07:02:38;22.50;99.90
22145;DHT22;11238;48.730;11.566;2023-06-22T07:05:04;22.60;99.90
22145;DHT22;11238;48.730;11.566;2023-06-22T07:07:31;22.70;99.90
22145;DHT22;11238;48.730;11.566;2023-06-22T07:09:59;22.80;99.90
22145;DHT22;11238;48.730;11.566;2023-06-22T07:12:24;22.90;99.90
22145;DHT22;11238;48.730;11.566;2023-06-22T07:14:52;23.00;99.90
22145;DHT22;11238;48.730;11.566;2023-06-22T07:17:18;23.10;99.90
22145;DHT22;11238;48.730;11.566;2023-06-22T07:19:45;23.20;99.90
22145;DHT22;11238;48.730;11.566;2023-06-22T07:22:12;23.40;99.90
22145;DHT22;11238;48.730;11.566;2023-06-22T07:24:38;23.50;99.90
22145;DHT22;11238;48.730;11.566;2023-06-22T07:27:04;23.60;99.90
22145;DHT22;11238;48.730;11.566;2023-06-22T07:29:32;23.70;99.90
22145;DHT22;11238;48.730;11.566;2023-06-22T07:31:59;23.80;99.90
22145;DHT22;11238;48.730;11.566;2023-06-22T07:34:26;23.90;99.90
22145;DHT22;11238;48.730;11.566;2023-06-22T07:36:52;24.10;99.90
22145;DHT22;11238;48.730;11.566;2023-06-22T07:39:18;24.10;99.90
22145;DHT22;11238;48.730;11.566;2023-06-22T07:41:44;24.20;99.90
22145;DHT22;11238;48.730;11.566;2023-06-22T07:44:10;24.30;99.90
22145;DHT22;11238;48.730;11.566;2023-06-22T07:46:35;24.30;99.90
22145;DHT22;11238;48.730;11.566;2023-06-22T07:49:02;24.40;99.90
22145;DHT22;11238;48.730;11.566;2023-06-22T07:51:28;24.70;99.90
22145;DHT22;11238;48.730;11.566;2023-06-22T07:53:54;24.80;99.90
22145;DHT22;11238;48.730;11.566;2023-06-22T07:56:23;24.80;99.90
22145;DHT22;11238;48.730;11.566;2023-06-22T07:58:48;24.90;99.90
22145;DHT22;11238;48.730;11.566;2023-06-22T08:01:14;25.00;99.90
22145;DHT22;11238;48.730;11.566;2023-06-22T08:03:40;25.00;99.90
22145;DHT22;11238;48.730;11.566;2023-06-22T08:06:07;25.30;99.90
22145;DHT22;11238;48.730;11.566;2023-06-22T08:08:37;25.40;99.90
22145;DHT22;11238;48.730;11.566;2023-06-22T08:11:03;25.50;99.60
22145;DHT22;11238;48.730;11.566;2023-06-22T08:13:30;25.60;99.10
22145;DHT22;11238;48.730;11.566;2023-06-22T08:15:56;25.80;98.50
22145;DHT22;11238;48.730;11.566;2023-06-22T08:18:23;25.90;97.60
22145;DHT22;11238;48.730;11.566;2023-06-22T08:20:48;25.90;96.50
22145;DHT22;11238;48.730;11.566;2023-06-22T08:23:15;26.00;97.30
22145;DHT22;11238;48.730;11.566;2023-06-22T08:25:41;26.20;94.00
22145;DHT22;11238;48.730;11.566;2023-06-22T08:28:07;26.30;96.10
22145;DHT22;11238;48.730;11.566;2023-06-22T08:30:33;26.30;95.10
22145;DHT22;11238;48.730;11.566;2023-06-22T08:32:59;26.40;93.10
22145;DHT22;11238;48.730;11.566;2023-06-22T08:35:25;26.60;93.90
22145;DHT22;11238;48.730;11.566;2023-06-22T08:37:51;26.70;93.90
22145;DHT22;11238;48.730;11.566;2023-06-22T08:40:22;26.70;92.40
22145;DHT22;11238;48.730;11.566;2023-06-22T08:42:48;26.80;91.60
22145;DHT22;11238;48.730;11.566;2023-06-22T08:58:31;27.40;87.40
22145;DHT22;11238;48.730;11.566;2023-06-22T09:00:57;27.60;90.80
22145;DHT22;11238;48.730;11.566;2023-06-22T09:03:26;27.60;89.60
22145;DHT22;11238;48.730;11.566;2023-06-22T09:05:52;27.80;89.10
22145;DHT22;11238;48.730;11.566;2023-06-22T09:08:18;28.00;88.30
22145;DHT22;11238;48.730;11.566;2023-06-22T09:10:46;28.00;88.00
22145;DHT22;11238;48.730;11.566;2023-06-22T09:13:12;28.00;87.00
22145;DHT22;11238;48.730;11.566;2023-06-22T09:15:38;28.10;87.20
22145;DHT22;11238;48.730;11.566;2023-06-22T09:18:04;28.30;88.50
22145;DHT22;11238;48.730;11.566;2023-06-22T09:20:32;28.30;88.10
22145;DHT22;11238;48.730;11.566;2023-06-22T09:22:58;28.30;85.80
22145;DHT22;11238;48.730;11.566;2023-06-22T09:25:24;28.50;86.50
22145;DHT22;11238;48.730;11.566;2023-06-22T09:27:49;28.60;84.30
22145;DHT22;11238;48.730;11.566;2023-06-22T09:30:15;28.80;85.30
22145;DHT22;11238;48.730;11.566;2023-06-22T09:32:41;28.80;82.90
22145;DHT22;11238;48.730;11.566;2023-06-22T09:35:08;29.00;81.20
22145;DHT22;11238;48.730;11.566;2023-06-22T09:37:35;29.10;82.40
22145;DHT22;11238;48.730;11.566;2023-06-22T09:40:02;29.00;79.20
22145;DHT22;11238;48.730;11.566;2023-06-22T09:42:33;29.10;80.30
22145;DHT22;11238;48.730;11.566;2023-06-22T09:45:00;29.20;79.10
22145;DHT22;11238;48.730;11.566;2023-06-22T09:47:28;29.30;81.70
22145;DHT22;11238;48.730;11.566;2023-06-22T09:49:54;29.30;81.20
22145;DHT22;11238;48.730;11.566;2023-06-22T09:52:21;29.30;79.30
22145;DHT22;11238;48.730;11.566;2023-06-22T09:54:47;29.50;79.80
22145;DHT22;11238;48.730;11.566;2023-06-22T09:57:13;29.50;78.70
22145;DHT22;11238;48.730;11.566;2023-06-22T09:59:39;29.40;74.70
22145;DHT22;11238;48.730;11.566;2023-06-22T10:02:08;29.20;74.20
22145;DHT22;11238;48.730;11.566;2023-06-22T10:04:34;29.40;75.40
22145;DHT22;11238;48.730;11.566;2023-06-22T10:07:01;29.40;75.70
22145;DHT22;11238;48.730;11.566;2023-06-22T10:09:27;29.50;76.40
22145;DHT22;11238;48.730;11.566;2023-06-22T10:11:52;29.80;77.80
22145;DHT22;11238;48.730;11.566;2023-06-22T10:14:18;29.80;75.60
22145;DHT22;11238;48.730;11.566;2023-06-22T10:16:44;29.90;73.00
22145;DHT22;11238;48.730;11.566;2023-06-22T10:19:10;30.20;74.60
22145;DHT22;11238;48.730;11.566;2023-06-22T10:21:36;30.20;72.30
22145;DHT22;11238;48.730;11.566;2023-06-22T10:24:02;30.30;74.30
22145;DHT22;11238;48.730;11.566;2023-06-22T10:26:32;30.50;73.10
22145;DHT22;11238;48.730;11.566;2023-06-22T10:28:59;30.60;72.50
22145;DHT22;11238;48.730;11.566;2023-06-22T10:31:25;30.80;71.60
22145;DHT22;11238;48.730;11.566;2023-06-22T10:33:51;30.90;71.90
22145;DHT22;11238;48.730;11.566;2023-06-22T10:36:17;31.00;69.60
22145;DHT22;11238;48.730;11.566;2023-06-22T10:38:43;31.00;71.90
22145;DHT22;11238;48.730;11.566;2023-06-22T10:41:08;31.20;68.50
22145;DHT22;11238;48.730;11.566;2023-06-22T10:43:34;31.10;69.70
22145;DHT22;11238;48.730;11.566;2023-06-22T10:46:00;31.20;70.20
22145;DHT22;11238;48.730;11.566;2023-06-22T10:48:25;30.80;68.70
22145;DHT22;11238;48.730;11.566;2023-06-22T10:50:51;30.80;70.90
22145;DHT22;11238;48.730;11.566;2023-06-22T10:53:19;30.90;72.00
22145;DHT22;11238;48.730;11.566;2023-06-22T10:55:44;30.80;67.20
22145;DHT22;11238;48.730;11.566;2023-06-22T10:58:10;31.10;68.00
22145;DHT22;11238;48.730;11.566;2023-06-22T11:00:36;30.90;69.00
22145;DHT22;11238;48.730;11.566;2023-06-22T11:03:02;31.10;69.10
22145;DHT22;11238;48.730;11.566;2023-06-22T11:05:28;31.10;66.90
22145;DHT22;11238;48.730;11.566;2023-06-22T11:07:54;30.70;67.70
22145;DHT22;11238;48.730;11.566;2023-06-22T11:10:20;30.60;69.20
22145;DHT22;11238;48.730;11.566;2023-06-22T11:12:46;30.30;69.70
22145;DHT22;11238;48.730;11.566;2023-06-22T11:15:12;30.60;71.80
22145;DHT22;11238;48.730;11.566;2023-06-22T11:17:37;30.70;71.30
22145;DHT22;11238;48.730;11.566;2023-06-22T11:20:04;30.90;71.60
22145;DHT22;11238;48.730;11.566;2023-06-22T11:22:39;31.10;70.40
22145;DHT22;11238;48.730;11.566;2023-06-22T11:25:07;31.20;68.80
22145;DHT22;11238;48.730;11.566;2023-06-22T11:27:33;31.60;69.00
22145;DHT22;11238;48.730;11.566;2023-06-22T11:29:59;31.80;69.10
22145;DHT22;11238;48.730;11.566;2023-06-22T11:32:25;32.10;69.00
22145;DHT22;11238;48.730;11.566;2023-06-22T11:34:50;32.10;66.90
22145;DHT22;11238;48.730;11.566;2023-06-22T11:37:16;32.20;66.40
22145;DHT22;11238;48.730;11.566;2023-06-22T11:39:42;32.30;65.30
22145;DHT22;11238;48.730;11.566;2023-06-22T11:42:09;32.40;65.20
22145;DHT22;11238;48.730;11.566;2023-06-22T11:44:36;32.60;68.50
22145;DHT22;11238;48.730;11.566;2023-06-22T11:47:01;32.80;65.10
22145;DHT22;11238;48.730;11.566;2023-06-22T11:49:30;32.90;64.00
22145;DHT22;11238;48.730;11.566;2023-06-22T11:51:56;33.10;64.40
22145;DHT22;11238;48.730;11.566;2023-06-22T11:54:22;33.20;63.60
22145;DHT22;11238;48.730;11.566;2023-06-22T11:56:48;33.20;64.00
22145;DHT22;11238;48.730;11.566;2023-06-22T11:59:13;33.30;63.10
22145;DHT22;11238;48.730;11.566;2023-06-22T12:01:40;33.40;62.50
22145;DHT22;11238;48.730;11.566;2023-06-22T12:04:07;33.50;62.70
22145;DHT22;11238;48.730;11.566;2023-06-22T12:06:33;33.60;62.30
22145;DHT22;11238;48.730;11.566;2023-06-22T12:08:59;33.80;59.60
22145;DHT22;11238;48.730;11.566;2023-06-22T12:11:24;33.90;59.10
22145;DHT22;11238;48.730;11.566;2023-06-22T12:13:51;34.00;59.10
22145;DHT22;11238;48.730;11.566;2023-06-22T12:16:17;34.10;59.60
22145;DHT22;11238;48.730;11.566;2023-06-22T12:18:43;34.20;58.70
22145;DHT22;11238;48.730;11.566;2023-06-22T12:21:09;34.20;57.00
22145;DHT22;11238;48.730;11.566;2023-06-22T12:23:34;34.30;57.00
22145;DHT22;11238;48.730;11.566;2023-06-22T12:26:01;34.00;56.70
22145;DHT22;11238;48.730;11.566;2023-06-22T12:28:27;33.40;55.10
22145;DHT22;11238;48.730;11.566;2023-06-22T12:30:54;33.50;58.60
22145;DHT22;11238;48.730;11.566;2023-06-22T12:33:20;33.80;59.50
22145;DHT22;11238;48.730;11.566;2023-06-22T12:35:45;34.10;59.50
22145;DHT22;11238;48.730;11.566;2023-06-22T12:38:15;34.30;57.30
22145;DHT22;11238;48.730;11.566;2023-06-22T12:40:41;34.40;56.20
22145;DHT22;11238;48.730;11.566;2023-06-22T12:43:07;34.60;54.30
22145;DHT22;11238;48.730;11.566;2023-06-22T12:45:33;34.50;53.60
22145;DHT22;11238;48.730;11.566;2023-06-22T12:48:00;34.60;53.80
22145;DHT22;11238;48.730;11.566;2023-06-22T12:50:26;34.70;55.50
22145;DHT22;11238;48.730;11.566;2023-06-22T12:52:52;34.00;52.50
22145;DHT22;11238;48.730;11.566;2023-06-22T12:55:18;34.20;54.50
22145;DHT22;11238;48.730;11.566;2023-06-22T12:57:43;34.20;55.50
22145;DHT22;11238;48.730;11.566;2023-06-22T13:00:09;34.30;55.50
22145;DHT22;11238;48.730;11.566;2023-06-22T13:02:37;34.30;54.60
22145;DHT22;11238;48.730;11.566;2023-06-22T13:05:03;34.30;54.20
22145;DHT22;11238;48.730;11.566;2023-06-22T13:07:31;34.40;53.90
22145;DHT22;11238;48.730;11.566;2023-06-22T13:09:56;34.20;52.30
22145;DHT22;11238;48.730;11.566;2023-06-22T13:12:23;34.30;54.00
22145;DHT22;11238;48.730;11.566;2023-06-22T13:14:49;34.50;53.70
22145;DHT22;11238;48.730;11.566;2023-06-22T13:17:15;34.00;51.30
22145;DHT22;11238;48.730;11.566;2023-06-22T13:19:41;33.70;53.30
22145;DHT22;11238;48.730;11.566;2023-06-22T13:24:55;33.90;55.50
22145;DHT22;11238;48.730;11.566;2023-06-22T13:27:21;34.20;56.60
22145;DHT22;11238;48.730;11.566;2023-06-22T13:29:48;34.20;54.00
22145;DHT22;11238;48.730;11.566;2023-06-22T13:32:14;34.00;52.80
22145;DHT22;11238;48.730;11.566;2023-06-22T13:34:40;34.00;53.90
22145;DHT22;11238;48.730;11.566;2023-06-22T13:37:06;33.90;54.90
22145;DHT22;11238;48.730;11.566;2023-06-22T13:39:32;34.00;54.40
22145;DHT22;11238;48.730;11.566;2023-06-22T13:41:58;33.90;53.40
22145;DHT22;11238;48.730;11.566;2023-06-22T13:44:24;34.20;54.70
22145;DHT22;11238;48.730;11.566;2023-06-22T13:46:55;34.40;53.00
22145;DHT22;11238;48.730;11.566;2023-06-22T13:49:21;34.40;52.10
22145;DHT22;11238;48.730;11.566;2023-06-22T13:51:48;34.50;51.80
22145;DHT22;11238;48.730;11.566;2023-06-22T13:54:14;34.70;53.40
22145;DHT22;11238;48.730;11.566;2023-06-22T13:56:40;34.30;50.40
22145;DHT22;11238;48.730;11.566;2023-06-22T13:59:07;34.40;51.50
22145;DHT22;11238;48.730;11.566;2023-06-22T14:01:36;34.00;51.10
22145;DHT22;11238;48.730;11.566;2023-06-22T14:04:02;34.30;51.50
22145;DHT22;11238;48.730;11.566;2023-06-22T14:06:28;34.70;53.90
22145;DHT22;11238;48.730;11.566;2023-06-22T14:08:53;34.80;50.60
22145;DHT22;11238;48.730;11.566;2023-06-22T14:11:38;35.10;51.00
22145;DHT22;11238;48.730;11.566;2023-06-22T14:14:03;35.00;50.30
22145;DHT22;11238;48.730;11.566;2023-06-22T14:16:31;35.30;52.10
22145;DHT22;11238;48.730;11.566;2023-06-22T14:18:56;35.40;50.20
22145;DHT22;11238;48.730;11.566;2023-06-22T14:21:22;35.60;52.70
22145;DHT22;11238;48.730;11.566;2023-06-22T14:23:48;35.90;50.60
22145;DHT22;11238;48.730;11.566;2023-06-22T14:26:35;36.10;50.50
22145;DHT22;11238;48.730;11.566;2023-06-22T14:29:01;36.20;49.00
22145;DHT22;11238;48.730;11.566;2023-06-22T14:31:27;36.20;50.00
22145;DHT22;11238;48.730;11.566;2023-06-22T14:33:52;35.90;49.40
22145;DHT22;11238;48.730;11.566;2023-06-22T14:36:19;35.80;49.10
22145;DHT22;11238;48.730;11.566;2023-06-22T14:38:44;35.60;49.00
22145;DHT22;11238;48.730;11.566;2023-06-22T14:41:11;35.60;50.20
22145;DHT22;11238;48.730;11.566;2023-06-22T14:43:59;35.70;50.60
22145;DHT22;11238;48.730;11.566;2023-06-22T14:46:26;35.70;48.10
22145;DHT22;11238;48.730;11.566;2023-06-22T14:48:53;35.90;47.70
22145;DHT22;11238;48.730;11.566;2023-06-22T14:51:19;35.50;46.70
22145;DHT22;11238;48.730;11.566;2023-06-22T14:53:45;35.50;48.60
22145;DHT22;11238;48.730;11.566;2023-06-22T14:56:12;35.70;48.20
22145;DHT22;11238;48.730;11.566;2023-06-22T14:58:40;35.60;46.40
22145;DHT22;11238;48.730;11.566;2023-06-22T15:01:06;35.90;48.20
22145;DHT22;11238;48.730;11.566;2023-06-22T15:03:34;36.10;48.00
22145;DHT22;11238;48.730;11.566;2023-06-22T15:06:03;36.20;47.40
22145;DHT22;11238;48.730;11.566;2023-06-22T15:08:29;36.20;46.40
22145;DHT22;11238;48.730;11.566;2023-06-22T15:11:00;36.00;45.70
22145;DHT22;11238;48.730;11.566;2023-06-22T15:13:30;35.80;46.90
22145;DHT22;11238;48.730;11.566;2023-06-22T15:16:01;35.90;47.60
22145;DHT22;11238;48.730;11.566;2023-06-22T15:18:27;35.80;48.00
22145;DHT22;11238;48.730;11.566;2023-06-22T15:20:53;36.00;48.50
22145;DHT22;11238;48.730;11.566;2023-06-22T15:23:19;36.10;47.20
22145;DHT22;11238;48.730;11.566;2023-06-22T15:25:44;36.00;48.20
22145;DHT22;11238;48.730;11.566;2023-06-22T15:28:12;36.10;46.90
22145;DHT22;11238;48.730;11.566;2023-06-22T15:30:38;36.20;49.00
22145;DHT22;11238;48.730;11.566;2023-06-22T15:33:04;36.40;48.20
22145;DHT22;11238;48.730;11.566;2023-06-22T15:35:30;36.10;47.90
22145;DHT22;11238;48.730;11.566;2023-06-22T15:37:56;36.10;47.70
22145;DHT22;11238;48.730;11.566;2023-06-22T15:40:22;36.30;47.50